sensor_id;sensor_type;location;lat;lon;timestamp;temperature;humidity
39925;DHT22;25592;49.986;11.618;2022-11-15T00:01:28;10.60;99.90
39925;DHT22;25592;49.986;11.618;2022-11-15T00:04:13;10.50;99.90
39925;DHT22;25592;49.986;11.618;2022-11-15T00:06:59;10.60;99.90
39925;DHT22;25592;49.986;11.618;2022-11-15T00:09:44;10.60;99.90
39925;DHT22;25592;49.986;11.618;2022-11-15T00:12:30;10.70;99.90
39925;DHT22;25592;49.986;11.618;2022-11-15T00:15:15;10.60;99.90
39925;DHT22;25592;49.986;11.618;2022-11-15T00:18:02;10.60;99.90
39925;DHT22;25592;49.986;11.618;2022-11-15T00:20:47;10.60;99.90
39925;DHT22;25592;49.986;11.618;2022-11-15T00:23:33;10.60;99.90
39925;DHT22;25592;49.986;11.618;2022-11-15T00:26:19;10.60;99.90
39925;DHT22;25592;49.986;11.618;2022-11-15T00:29:04;10.60;99.90
39925;DHT22;25592;49.986;11.618;2022-11-15T00:31:50;10.60;99.90
39925;DHT22;25592;49.986;11.618;2022-11-15T00:34:35;10.60;99.90
39925;DHT22;25592;49.986;11.618;2022-11-15T00:37:21;10.70;99.90
39925;DHT22;25592;49.986;11.618;2022-11-15T00:40:07;10.50;99.90
39925;DHT22;25592;49.986;11.618;2022-11-15T00:42:53;10.60;99.90
39925;DHT22;25592;49.986;11.618;2022-11-15T00:45:38;10.60;99.90
39925;DHT22;25592;49.986;11.618;2022-11-15T00:48:24;10.60;99.90
39925;DHT22;25592;49.986;11.618;2022-11-15T00:51:09;10.60;99.90
39925;DHT22;25592;49.986;11.618;2022-11-15T00:53:54;10.60;99.90
39925;DHT22;25592;49.986;11.618;2022-11-15T00:56:39;10.70;99.90
39925;DHT22;25592;49.986;11.618;2022-11-15T00:59:25;10.60;99.90
39925;DHT22;25592;49.986;11.618;2022-11-15T01:02:10;10.70;99.90
39925;DHT22;25592;49.986;11.618;2022-11-15T01:04:56;10.70;99.90
39925;DHT22;25592;49.986;11.618;2022-11-15T01:07:41;10.70;99.90
39925;DHT22;25592;49.986;11.618;2022-11-15T01:10:26;10.60;99.90
39925;DHT22;25592;49.986;11.618;2022-11-15T01:13:12;10.60;99.90
39925;DHT22;25592;49.986;11.618;2022-11-15T01:15:58;10.60;99.90
39925;DHT22;25592;49.986;11.618;2022-11-15T01:18:44;10.70;99.90
39925;DHT22;25592;49.986;11.618;2022-11-15T01:21:30;10.60;99.90
39925;DHT22;25592;49.986;11.618;2022-11-15T01:24:16;10.70;99.90
39925;DHT22;25592;49.986;11.618;2022-11-15T01:27:01;10.70;99.90
39925;DHT22;25592;49.986;11.618;2022-11-15T01:29:47;10.70;99.90
39925;DHT22;25592;49.986;11.618;2022-11-15T01:32:32;10.60;99.90
39925;DHT22;25592;49.986;11.618;2022-11-15T01:35:17;10.60;99.90
39925;DHT22;25592;49.986;11.618;2022-11-15T01:38:03;10.70;99.90
39925;DHT22;25592;49.986;11.618;2022-11-15T01:40:49;10.60;99.90
39925;DHT22;25592;49.986;11.618;2022-11-15T01:43:36;10.60;99.90
39925;DHT22;25592;49.986;11.618;2022-11-15T01:46:32;10.60;99.90
39925;DHT22;25592;49.986;11.618;2022-11-15T01:49:21;10.70;99.90
39925;DHT22;25592;49.986;11.618;2022-11-15T01:52:12;10.60;99.90
39925;DHT22;25592;49.986;11.618;2022-11-15T01:57:47;10.60;99.90
39925;DHT22;25592;49.986;11.618;2022-11-15T02:00:34;10.60;99.90
39925;DHT22;25592;49.986;11.618;2022-11-15T02:03:22;10.60;99.90
39925;DHT22;25592;49.986;11.618;2022-11-15T02:06:10;10.60;99.90
39925;DHT22;25592;49.986;11.618;2022-11-15T02:08:56;10.60;99.90
39925;DHT22;25592;49.986;11.618;2022-11-15T02:11:42;10.50;99.90
39925;DHT22;25592;49.986;11.618;2022-11-15T02:14:29;10.50;99.90
39925;DHT22;25592;49.986;11.618;2022-11-15T02:24:27;10.50;99.90
39925;DHT22;25592;49.986;11.618;2022-11-15T02:30:48;10.40;99.90
39925;DHT22;25592;49.986;11.618;2022-11-15T02:36:54;10.20;99.90
39925;DHT22;25592;49.986;11.618;2022-11-15T02:43:11;10.10;99.90
39925;DHT22;25592;49.986;11.618;2022-11-15T02:46:26;10.10;99.90
39925;DHT22;25592;49.986;11.618;2022-11-15T02:49:34;10.10;99.90
39925;DHT22;25592;49.986;11.618;2022-11-15T02:52:22;10.00;99.90
39925;DHT22;25592;49.986;11.618;2022-11-15T02:55:36;10.00;99.90
39925;DHT22;25592;49.986;11.618;2022-11-15T02:58:56;10.00;99.90
39925;DHT22;25592;49.986;11.618;2022-11-15T03:04:56;10.00;99.90
39925;DHT22;25592;49.986;11.618;2022-11-15T03:08:00;9.90;99.90
39925;DHT22;25592;49.986;11.618;2022-11-15T03:10:54;9.80;99.90
39925;DHT22;25592;49.986;11.618;2022-11-15T03:17:05;9.90;99.90
39925;DHT22;25592;49.986;11.618;2022-11-15T03:19:57;9.80;99.90
39925;DHT22;25592;49.986;11.618;2022-11-15T03:22:45;9.80;99.90
39925;DHT22;25592;49.986;11.618;2022-11-15T03:25:33;9.80;99.90
39925;DHT22;25592;49.986;11.618;2022-11-15T03:28:27;9.80;99.80
39925;DHT22;25592;49.986;11.618;2022-11-15T03:31:18;9.80;99.90
39925;DHT22;25592;49.986;11.618;2022-11-15T03:34:29;9.80;99.80
39925;DHT22;25592;49.986;11.618;2022-11-15T03:37:16;9.70;99.70
39925;DHT22;25592;49.986;11.618;2022-11-15T03:40:03;9.70;99.70
39925;DHT22;25592;49.986;11.618;2022-11-15T03:45:48;9.70;99.90
39925;DHT22;25592;49.986;11.618;2022-11-15T03:48:39;9.60;99.90
39925;DHT22;25592;49.986;11.618;2022-11-15T03:51:25;9.60;99.70
39925;DHT22;25592;49.986;11.618;2022-11-15T03:54:12;9.60;99.70
39925;DHT22;25592;49.986;11.618;2022-11-15T03:56:57;9.50;99.60
39925;DHT22;25592;49.986;11.618;2022-11-15T03:59:42;9.50;99.70
39925;DHT22;25592;49.986;11.618;2022-11-15T04:02:28;9.50;99.70
39925;DHT22;25592;49.986;11.618;2022-11-15T04:05:13;9.50;99.60
39925;DHT22;25592;49.986;11.618;2022-11-15T04:07:58;9.50;99.70
39925;DHT22;25592;49.986;11.618;2022-11-15T04:10:44;9.50;99.50
39925;DHT22;25592;49.986;11.618;2022-11-15T04:13:29;9.40;99.70
39925;DHT22;25592;49.986;11.618;2022-11-15T04:16:15;9.50;99.60
39925;DHT22;25592;49.986;11.618;2022-11-15T04:19:00;9.50;99.60
39925;DHT22;25592;49.986;11.618;2022-11-15T04:22:04;9.40;99.60
39925;DHT22;25592;49.986;11.618;2022-11-15T04:25:08;9.40;99.80
39925;DHT22;25592;49.986;11.618;2022-11-15T04:27:54;9.40;99.70
39925;DHT22;25592;49.986;11.618;2022-11-15T04:30:39;9.40;99.60
39925;DHT22;25592;49.986;11.618;2022-11-15T04:33:25;9.40;99.70
39925;DHT22;25592;49.986;11.618;2022-11-15T04:36:10;9.30;99.40
39925;DHT22;25592;49.986;11.618;2022-11-15T04:39:14;9.30;99.50
39925;DHT22;25592;49.986;11.618;2022-11-15T04:42:00;9.20;99.50
39925;DHT22;25592;49.986;11.618;2022-11-15T04:44:45;9.20;99.50
39925;DHT22;25592;49.986;11.618;2022-11-15T04:47:30;9.20;99.40
39925;DHT22;25592;49.986;11.618;2022-11-15T04:50:16;9.20;99.40
39925;DHT22;25592;49.986;11.618;2022-11-15T04:53:02;9.20;99.50
39925;DHT22;25592;49.986;11.618;2022-11-15T04:55:47;9.20;99.50
39925;DHT22;25592;49.986;11.618;2022-11-15T04:58:32;9.20;99.50
39925;DHT22;25592;49.986;11.618;2022-11-15T05:01:19;9.10;99.50
39925;DHT22;25592;49.986;11.618;2022-11-15T05:04:04;9.10;99.50
39925;DHT22;25592;49.986;11.618;2022-11-15T05:07:04;9.10;99.40
39925;DHT22;25592;49.986;11.618;2022-11-15T05:09:50;9.00;99.80
39925;DHT22;25592;49.986;11.618;2022-11-15T05:12:35;8.90;99.90
39925;DHT22;25592;49.986;11.618;2022-11-15T05:15:21;8.90;99.70
39925;DHT22;25592;49.986;11.618;2022-11-15T05:18:06;8.90;99.70
39925;DHT22;25592;49.986;11.618;2022-11-15T05:20:51;9.00;99.70
39925;DHT22;25592;49.986;11.618;2022-11-15T05:23:37;9.00;99.40
39925;DHT22;25592;49.986;11.618;2022-11-15T05:26:23;8.90;99.70
39925;DHT22;25592;49.986;11.618;2022-11-15T05:29:09;9.00;99.50
39925;DHT22;25592;49.986;11.618;2022-11-15T05:31:54;9.00;99.80
39925;DHT22;25592;49.986;11.618;2022-11-15T05:34:40;9.00;99.90
39925;DHT22;25592;49.986;11.618;2022-11-15T05:37:25;9.00;99.70
39925;DHT22;25592;49.986;11.618;2022-11-15T05:40:11;8.90;99.30
39925;DHT22;25592;49.986;11.618;2022-11-15T05:42:56;8.90;99.60
39925;DHT22;25592;49.986;11.618;2022-11-15T05:45:42;8.80;99.70
39925;DHT22;25592;49.986;11.618;2022-11-15T05:48:28;8.80;99.50
39925;DHT22;25592;49.986;11.618;2022-11-15T05:51:14;8.80;99.80
39925;DHT22;25592;49.986;11.618;2022-11-15T05:54:01;8.80;99.70
39925;DHT22;25592;49.986;11.618;2022-11-15T05:56:47;8.80;99.50
39925;DHT22;25592;49.986;11.618;2022-11-15T05:59:34;8.80;99.50
39925;DHT22;25592;49.986;11.618;2022-11-15T06:02:20;8.70;99.30
39925;DHT22;25592;49.986;11.618;2022-11-15T06:05:05;8.70;99.40
39925;DHT22;25592;49.986;11.618;2022-11-15T06:07:50;8.70;99.40
39925;DHT22;25592;49.986;11.618;2022-11-15T06:10:36;8.70;99.30
39925;DHT22;25592;49.986;11.618;2022-11-15T06:13:21;8.60;99.60
39925;DHT22;25592;49.986;11.618;2022-11-15T06:16:07;8.60;99.80
39925;DHT22;25592;49.986;11.618;2022-11-15T06:18:52;8.60;99.90
39925;DHT22;25592;49.986;11.618;2022-11-15T06:21:38;8.60;99.90
39925;DHT22;25592;49.986;11.618;2022-11-15T06:24:23;8.60;99.90
39925;DHT22;25592;49.986;11.618;2022-11-15T06:27:08;8.60;99.80
39925;DHT22;25592;49.986;11.618;2022-11-15T06:29:54;8.50;99.30
39925;DHT22;25592;49.986;11.618;2022-11-15T06:32:39;8.50;99.90
39925;DHT22;25592;49.986;11.618;2022-11-15T06:35:25;8.60;99.90
39925;DHT22;25592;49.986;11.618;2022-11-15T06:38:11;8.40;99.70
39925;DHT22;25592;49.986;11.618;2022-11-15T06:41:05;8.50;99.90
39925;DHT22;25592;49.986;11.618;2022-11-15T06:43:50;8.50;99.90
39925;DHT22;25592;49.986;11.618;2022-11-15T06:46:35;8.50;99.90
39925;DHT22;25592;49.986;11.618;2022-11-15T06:49:21;8.50;99.80
39925;DHT22;25592;49.986;11.618;2022-11-15T06:52:06;8.40;99.90
39925;DHT22;25592;49.986;11.618;2022-11-15T06:54:52;8.40;99.90
39925;DHT22;25592;49.986;11.618;2022-11-15T06:57:46;8.50;99.90
39925;DHT22;25592;49.986;11.618;2022-11-15T07:00:32;8.50;99.90
39925;DHT22;25592;49.986;11.618;2022-11-15T07:03:17;8.50;99.90
39925;DHT22;25592;49.986;11.618;2022-11-15T07:06:03;8.50;99.90
39925;DHT22;25592;49.986;11.618;2022-11-15T07:08:52;8.50;99.90
39925;DHT22;25592;49.986;11.618;2022-11-15T07:11:38;8.50;99.90
39925;DHT22;25592;49.986;11.618;2022-11-15T07:14:23;8.50;99.90
39925;DHT22;25592;49.986;11.618;2022-11-15T07:17:08;8.50;99.90
39925;DHT22;25592;49.986;11.618;2022-11-15T07:19:54;8.60;99.90
39925;DHT22;25592;49.986;11.618;2022-11-15T07:22:40;8.60;99.90
39925;DHT22;25592;49.986;11.618;2022-11-15T07:25:26;8.60;99.90
39925;DHT22;25592;49.986;11.618;2022-11-15T07:28:12;8.60;99.90
39925;DHT22;25592;49.986;11.618;2022-11-15T07:30:57;8.60;99.90
39925;DHT22;25592;49.986;11.618;2022-11-15T07:33:43;8.60;99.90
39925;DHT22;25592;49.986;11.618;2022-11-15T07:36:28;8.70;99.90
39925;DHT22;25592;49.986;11.618;2022-11-15T07:39:13;8.70;99.90
39925;DHT22;25592;49.986;11.618;2022-11-15T07:41:59;8.70;99.90
39925;DHT22;25592;49.986;11.618;2022-11-15T07:45:03;8.70;99.90
39925;DHT22;25592;49.986;11.618;2022-11-15T07:47:50;8.70;99.90
39925;DHT22;25592;49.986;11.618;2022-11-15T07:50:35;8.70;99.90
39925;DHT22;25592;49.986;11.618;2022-11-15T07:53:21;8.70;99.90
39925;DHT22;25592;49.986;11.618;2022-11-15T07:56:07;8.60;99.90
39925;DHT22;25592;49.986;11.618;2022-11-15T07:58:52;8.70;99.90
39925;DHT22;25592;49.986;11.618;2022-11-15T08:01:38;8.70;99.90
39925;DHT22;25592;49.986;11.618;2022-11-15T08:04:23;8.70;99.90
39925;DHT22;25592;49.986;11.618;2022-11-15T08:07:09;8.80;99.90
39925;DHT22;25592;49.986;11.618;2022-11-15T08:09:54;8.80;99.90
39925;DHT22;25592;49.986;11.618;2022-11-15T08:12:40;8.90;99.90
39925;DHT22;25592;49.986;11.618;2022-11-15T08:15:26;8.90;99.90
39925;DHT22;25592;49.986;11.618;2022-11-15T08:18:13;8.90;99.90
39925;DHT22;25592;49.986;11.618;2022-11-15T08:21:00;8.90;99.90
39925;DHT22;25592;49.986;11.618;2022-11-15T08:23:45;9.00;99.90
39925;DHT22;25592;49.986;11.618;2022-11-15T08:26:31;9.00;99.90
39925;DHT22;25592;49.986;11.618;2022-11-15T08:29:17;9.00;99.90
39925;DHT22;25592;49.986;11.618;2022-11-15T08:32:02;9.10;99.90
39925;DHT22;25592;49.986;11.618;2022-11-15T08:34:47;9.20;99.90
39925;DHT22;25592;49.986;11.618;2022-11-15T08:37:32;9.30;99.90
39925;DHT22;25592;49.986;11.618;2022-11-15T08:40:18;9.40;99.90
39925;DHT22;25592;49.986;11.618;2022-11-15T08:43:04;9.60;99.90
39925;DHT22;25592;49.986;11.618;2022-11-15T08:45:50;9.60;99.90
39925;DHT22;25592;49.986;11.618;2022-11-15T08:48:35;9.70;99.90
39925;DHT22;25592;49.986;11.618;2022-11-15T08:51:21;9.80;99.90
39925;DHT22;25592;49.986;11.618;2022-11-15T08:54:06;9.90;99.90
39925;DHT22;25592;49.986;11.618;2022-11-15T08:56:52;9.90;99.90
39925;DHT22;25592;49.986;11.618;2022-11-15T08:59:37;10.10;99.90
39925;DHT22;25592;49.986;11.618;2022-11-15T09:02:22;10.10;99.90
39925;DHT22;25592;49.986;11.618;2022-11-15T09:05:08;10.20;99.90
39925;DHT22;25592;49.986;11.618;2022-11-15T09:07:54;10.40;99.90
39925;DHT22;25592;49.986;11.618;2022-11-15T09:10:40;10.50;99.90
39925;DHT22;25592;49.986;11.618;2022-11-15T09:13:25;10.50;99.90
39925;DHT22;25592;49.986;11.618;2022-11-15T09:16:11;10.60;99.90
39925;DHT22;25592;49.986;11.618;2022-11-15T09:18:57;10.90;99.90
39925;DHT22;25592;49.986;11.618;2022-11-15T09:21:43;10.90;99.90
39925;DHT22;25592;49.986;11.618;2022-11-15T09:24:28;11.10;99.90
39925;DHT22;25592;49.986;11.618;2022-11-15T09:27:13;11.20;99.90
39925;DHT22;25592;49.986;11.618;2022-11-15T09:29:59;11.40;99.90
39925;DHT22;25592;49.986;11.618;2022-11-15T09:32:44;11.50;99.90
39925;DHT22;25592;49.986;11.618;2022-11-15T09:35:31;11.50;99.90
39925;DHT22;25592;49.986;11.618;2022-11-15T09:38:16;11.70;99.90
39925;DHT22;25592;49.986;11.618;2022-11-15T09:50:10;12.20;99.50
39925;DHT22;25592;49.986;11.618;2022-11-15T09:52:56;12.40;99.50
39925;DHT22;25592;49.986;11.618;2022-11-15T09:55:50;12.60;98.90
39925;DHT22;25592;49.986;11.618;2022-11-15T09:58:38;12.80;99.10
39925;DHT22;25592;49.986;11.618;2022-11-15T10:04:23;12.90;98.80
39925;DHT22;25592;49.986;11.618;2022-11-15T10:12:57;13.20;98.70
39925;DHT22;25592;49.986;11.618;2022-11-15T10:15:44;13.20;98.30
39925;DHT22;25592;49.986;11.618;2022-11-15T10:24:42;13.40;97.60
39925;DHT22;25592;49.986;11.618;2022-11-15T10:27:29;13.50;97.30
39925;DHT22;25592;49.986;11.618;2022-11-15T10:30:17;13.60;97.20
39925;DHT22;25592;49.986;11.618;2022-11-15T10:33:27;13.70;97.10
39925;DHT22;25592;49.986;11.618;2022-11-15T10:36:20;13.70;96.90
39925;DHT22;25592;49.986;11.618;2022-11-15T10:39:12;13.90;96.90
39925;DHT22;25592;49.986;11.618;2022-11-15T10:41:57;14.00;96.80
39925;DHT22;25592;49.986;11.618;2022-11-15T10:44:44;14.00;96.60
39925;DHT22;25592;49.986;11.618;2022-11-15T10:47:31;14.00;96.50
39925;DHT22;25592;49.986;11.618;2022-11-15T10:50:31;14.00;96.10
39925;DHT22;25592;49.986;11.618;2022-11-15T10:56:07;14.00;96.30
39925;DHT22;25592;49.986;11.618;2022-11-15T10:58:57;14.00;96.20
39925;DHT22;25592;49.986;11.618;2022-11-15T11:01:47;13.90;96.50
39925;DHT22;25592;49.986;11.618;2022-11-15T11:04:49;13.90;96.60
39925;DHT22;25592;49.986;11.618;2022-11-15T11:07:35;14.00;96.50
39925;DHT22;25592;49.986;11.618;2022-11-15T11:10:22;14.00;96.20
39925;DHT22;25592;49.986;11.618;2022-11-15T11:13:38;14.00;96.40
39925;DHT22;25592;49.986;11.618;2022-11-15T11:16:35;14.10;96.10
39925;DHT22;25592;49.986;11.618;2022-11-15T11:22:41;14.20;96.20
39925;DHT22;25592;49.986;11.618;2022-11-15T11:25:33;14.40;96.10
39925;DHT22;25592;49.986;11.618;2022-11-15T11:29:35;14.40;96.20
39925;DHT22;25592;49.986;11.618;2022-11-15T11:46:57;14.80;95.70
39925;DHT22;25592;49.986;11.618;2022-11-15T11:50:00;14.90;95.60
39925;DHT22;25592;49.986;11.618;2022-11-15T11:53:09;14.90;95.60
39925;DHT22;25592;49.986;11.618;2022-11-15T11:55:58;15.00;95.70
39925;DHT22;25592;49.986;11.618;2022-11-15T11:58:48;14.90;95.40
39925;DHT22;25592;49.986;11.618;2022-11-15T12:01:41;15.00;95.30
39925;DHT22;25592;49.986;11.618;2022-11-15T12:04:36;15.20;95.40
39925;DHT22;25592;49.986;11.618;2022-11-15T12:07:27;15.40;95.10
39925;DHT22;25592;49.986;11.618;2022-11-15T12:10:22;15.50;95.10
39925;DHT22;25592;49.986;11.618;2022-11-15T12:13:13;15.40;94.80
39925;DHT22;25592;49.986;11.618;2022-11-15T12:18:54;15.50;95.40
39925;DHT22;25592;49.986;11.618;2022-11-15T12:22:04;15.70;94.60
39925;DHT22;25592;49.986;11.618;2022-11-15T12:27:46;15.80;94.70
39925;DHT22;25592;49.986;11.618;2022-11-15T12:31:02;15.80;94.30
39925;DHT22;25592;49.986;11.618;2022-11-15T12:33:49;15.80;94.20
39925;DHT22;25592;49.986;11.618;2022-11-15T12:36:43;15.90;94.10
39925;DHT22;25592;49.986;11.618;2022-11-15T12:46:03;16.20;93.90
39925;DHT22;25592;49.986;11.618;2022-11-15T12:49:01;16.20;93.60
39925;DHT22;25592;49.986;11.618;2022-11-15T12:57:29;16.40;93.40
39925;DHT22;25592;49.986;11.618;2022-11-15T13:00:43;16.40;93.30
39925;DHT22;25592;49.986;11.618;2022-11-15T13:03:28;16.20;93.50
39925;DHT22;25592;49.986;11.618;2022-11-15T13:06:38;16.10;93.80
39925;DHT22;25592;49.986;11.618;2022-11-15T13:17:58;15.70;93.80
39925;DHT22;25592;49.986;11.618;2022-11-15T13:21:17;15.60;93.70
39925;DHT22;25592;49.986;11.618;2022-11-15T13:24:23;15.50;94.10
39925;DHT22;25592;49.986;11.618;2022-11-15T13:27:19;15.50;94.20
39925;DHT22;25592;49.986;11.618;2022-11-15T13:30:05;15.40;94.20
39925;DHT22;25592;49.986;11.618;2022-11-15T13:32:51;15.40;94.40
39925;DHT22;25592;49.986;11.618;2022-11-15T13:35:40;15.50;94.50
39925;DHT22;25592;49.986;11.618;2022-11-15T13:38:30;15.50;94.50
39925;DHT22;25592;49.986;11.618;2022-11-15T13:44:03;15.50;94.50
39925;DHT22;25592;49.986;11.618;2022-11-15T13:46:48;15.60;94.50
39925;DHT22;25592;49.986;11.618;2022-11-15T13:49:44;15.70;94.60
39925;DHT22;25592;49.986;11.618;2022-11-15T13:52:34;15.80;95.00
39925;DHT22;25592;49.986;11.618;2022-11-15T13:55:22;15.60;94.30
39925;DHT22;25592;49.986;11.618;2022-11-15T13:58:09;15.60;94.30
39925;DHT22;25592;49.986;11.618;2022-11-15T14:01:03;15.50;94.10
39925;DHT22;25592;49.986;11.618;2022-11-15T14:03:56;15.30;94.10
39925;DHT22;25592;49.986;11.618;2022-11-15T14:07:00;15.10;94.60
39925;DHT22;25592;49.986;11.618;2022-11-15T14:09:47;15.30;94.80
39925;DHT22;25592;49.986;11.618;2022-11-15T14:12:34;15.50;94.50
39925;DHT22;25592;49.986;11.618;2022-11-15T14:15:36;15.70;94.10
39925;DHT22;25592;49.986;11.618;2022-11-15T14:18:45;15.40;94.20
39925;DHT22;25592;49.986;11.618;2022-11-15T14:21:32;15.30;94.50
39925;DHT22;25592;49.986;11.618;2022-11-15T14:24:20;15.50;94.40
39925;DHT22;25592;49.986;11.618;2022-11-15T14:27:23;15.30;94.40
39925;DHT22;25592;49.986;11.618;2022-11-15T14:30:14;15.30;94.50
39925;DHT22;25592;49.986;11.618;2022-11-15T14:33:00;15.30;94.50
39925;DHT22;25592;49.986;11.618;2022-11-15T14:35:46;15.30;94.30
39925;DHT22;25592;49.986;11.618;2022-11-15T14:38:31;15.30;94.40
39925;DHT22;25592;49.986;11.618;2022-11-15T14:41:25;15.20;94.40
39925;DHT22;25592;49.986;11.618;2022-11-15T14:44:11;15.10;94.30
39925;DHT22;25592;49.986;11.618;2022-11-15T14:46:57;15.20;94.50
39925;DHT22;25592;49.986;11.618;2022-11-15T14:49:43;15.20;94.50
39925;DHT22;25592;49.986;11.618;2022-11-15T14:52:31;15.30;94.60
39925;DHT22;25592;49.986;11.618;2022-11-15T14:55:26;15.30;95.10
39925;DHT22;25592;49.986;11.618;2022-11-15T14:58:16;15.30;95.10
39925;DHT22;25592;49.986;11.618;2022-11-15T15:01:24;15.30;95.30
39925;DHT22;25592;49.986;11.618;2022-11-15T15:04:10;15.20;95.50
39925;DHT22;25592;49.986;11.618;2022-11-15T15:06:55;15.20;95.80
39925;DHT22;25592;49.986;11.618;2022-11-15T15:09:41;15.10;95.70
39925;DHT22;25592;49.986;11.618;2022-11-15T15:12:27;15.10;95.60
39925;DHT22;25592;49.986;11.618;2022-11-15T15:15:14;15.10;95.80
39925;DHT22;25592;49.986;11.618;2022-11-15T15:18:00;15.00;95.60
39925;DHT22;25592;49.986;11.618;2022-11-15T15:20:53;14.90;95.30
39925;DHT22;25592;49.986;11.618;2022-11-15T15:23:39;14.80;95.50
39925;DHT22;25592;49.986;11.618;2022-11-15T15:26:25;14.80;95.80
39925;DHT22;25592;49.986;11.618;2022-11-15T15:29:10;14.70;96.00
39925;DHT22;25592;49.986;11.618;2022-11-15T15:31:55;14.60;96.10
39925;DHT22;25592;49.986;11.618;2022-11-15T15:34:41;14.50;96.10
39925;DHT22;25592;49.986;11.618;2022-11-15T15:37:26;14.60;96.00
39925;DHT22;25592;49.986;11.618;2022-11-15T15:40:18;14.50;96.00
39925;DHT22;25592;49.986;11.618;2022-11-15T15:43:03;14.40;96.10
39925;DHT22;25592;49.986;11.618;2022-11-15T15:45:49;14.30;96.20
39925;DHT22;25592;49.986;11.618;2022-11-15T15:48:34;14.30;96.20
39925;DHT22;25592;49.986;11.618;2022-11-15T15:51:22;14.30;96.20
39925;DHT22;25592;49.986;11.618;2022-11-15T15:54:09;14.20;96.20
39925;DHT22;25592;49.986;11.618;2022-11-15T15:56:54;14.20;96.20
39925;DHT22;25592;49.986;11.618;2022-11-15T15:59:40;14.10;96.30
39925;DHT22;25592;49.986;11.618;2022-11-15T16:02:26;14.00;96.40
39925;DHT22;25592;49.986;11.618;2022-11-15T16:05:12;13.90;96.30
39925;DHT22;25592;49.986;11.618;2022-11-15T16:07:57;13.80;96.30
39925;DHT22;25592;49.986;11.618;2022-11-15T16:10:42;13.80;96.40
39925;DHT22;25592;49.986;11.618;2022-11-15T16:13:28;13.70;96.40
39925;DHT22;25592;49.986;11.618;2022-11-15T16:16:13;13.80;96.30
39925;DHT22;25592;49.986;11.618;2022-11-15T16:18:59;13.70;96.20
39925;DHT22;25592;49.986;11.618;2022-11-15T16:21:46;13.70;96.10
39925;DHT22;25592;49.986;11.618;2022-11-15T16:24:31;13.60;96.40
39925;DHT22;25592;49.986;11.618;2022-11-15T16:27:18;13.50;96.40
39925;DHT22;25592;49.986;11.618;2022-11-15T16:30:17;13.50;96.50
39925;DHT22;25592;49.986;11.618;2022-11-15T16:33:03;13.50;96.60
39925;DHT22;25592;49.986;11.618;2022-11-15T16:35:48;13.50;96.70
39925;DHT22;25592;49.986;11.618;2022-11-15T16:38:34;13.40;96.80
39925;DHT22;25592;49.986;11.618;2022-11-15T16:41:21;13.40;96.80
39925;DHT22;25592;49.986;11.618;2022-11-15T16:44:06;13.50;98.60
39925;DHT22;25592;49.986;11.618;2022-11-15T16:46:52;13.70;97.50
39925;DHT22;25592;49.986;11.618;2022-11-15T16:49:37;13.60;97.00
39925;DHT22;25592;49.986;11.618;2022-11-15T16:52:22;13.60;97.30
39925;DHT22;25592;49.986;11.618;2022-11-15T16:55:08;13.50;97.30
39925;DHT22;25592;49.986;11.618;2022-11-15T16:57:54;13.50;97.10
39925;DHT22;25592;49.986;11.618;2022-11-15T17:00:42;13.40;97.30
39925;DHT22;25592;49.986;11.618;2022-11-15T17:03:27;13.30;97.10
39925;DHT22;25592;49.986;11.618;2022-11-15T17:06:13;13.30;97.00
39925;DHT22;25592;49.986;11.618;2022-11-15T17:08:59;13.30;97.40
39925;DHT22;25592;49.986;11.618;2022-11-15T17:11:45;13.20;97.60
39925;DHT22;25592;49.986;11.618;2022-11-15T17:14:30;13.10;97.00
39925;DHT22;25592;49.986;11.618;2022-11-15T17:17:16;13.10;96.90
39925;DHT22;25592;49.986;11.618;2022-11-15T17:20:01;12.90;96.50
39925;DHT22;25592;49.986;11.618;2022-11-15T17:22:49;12.90;96.30
39925;DHT22;25592;49.986;11.618;2022-11-15T17:25:34;12.80;96.70
39925;DHT22;25592;49.986;11.618;2022-11-15T17:28:19;12.70;96.80
39925;DHT22;25592;49.986;11.618;2022-11-15T17:31:07;12.70;97.10
39925;DHT22;25592;49.986;11.618;2022-11-15T17:33:53;12.70;96.90
39925;DHT22;25592;49.986;11.618;2022-11-15T17:36:38;12.70;97.00
39925;DHT22;25592;49.986;11.618;2022-11-15T17:39:24;12.70;97.20
39925;DHT22;25592;49.986;11.618;2022-11-15T17:42:09;12.60;97.20
39925;DHT22;25592;49.986;11.618;2022-11-15T17:44:54;12.60;97.10
39925;DHT22;25592;49.986;11.618;2022-11-15T17:47:40;12.60;97.00
39925;DHT22;25592;49.986;11.618;2022-11-15T17:50:25;12.60;97.50
39925;DHT22;25592;49.986;11.618;2022-11-15T17:53:11;12.60;97.60
39925;DHT22;25592;49.986;11.618;2022-11-15T17:56:01;12.60;97.50
39925;DHT22;25592;49.986;11.618;2022-11-15T17:58:58;12.50;97.70
39925;DHT22;25592;49.986;11.618;2022-11-15T18:01:44;12.50;97.80
39925;DHT22;25592;49.986;11.618;2022-11-15T18:04:29;12.50;97.90
39925;DHT22;25592;49.986;11.618;2022-11-15T18:07:15;12.40;97.70
39925;DHT22;25592;49.986;11.618;2022-11-15T18:10:00;12.30;98.00
39925;DHT22;25592;49.986;11.618;2022-11-15T18:12:45;12.30;98.20
39925;DHT22;25592;49.986;11.618;2022-11-15T18:15:31;12.20;97.80
39925;DHT22;25592;49.986;11.618;2022-11-15T18:18:16;12.20;98.30
39925;DHT22;25592;49.986;11.618;2022-11-15T18:23:55;12.20;98.10
39925;DHT22;25592;49.986;11.618;2022-11-15T18:26:41;12.30;98.10
39925;DHT22;25592;49.986;11.618;2022-11-15T18:29:26;12.20;98.10
39925;DHT22;25592;49.986;11.618;2022-11-15T18:32:12;12.20;98.10
39925;DHT22;25592;49.986;11.618;2022-11-15T18:34:59;12.20;98.40
39925;DHT22;25592;49.986;11.618;2022-11-15T18:37:44;12.20;98.40
39925;DHT22;25592;49.986;11.618;2022-11-15T18:40:30;12.20;98.20
39925;DHT22;25592;49.986;11.618;2022-11-15T18:43:15;12.20;98.20
39925;DHT22;25592;49.986;11.618;2022-11-15T18:46:09;12.10;98.20
39925;DHT22;25592;49.986;11.618;2022-11-15T18:48:54;12.00;98.10
39925;DHT22;25592;49.986;11.618;2022-11-15T18:51:40;12.00;98.30
39925;DHT22;25592;49.986;11.618;2022-11-15T18:54:26;12.00;98.20
39925;DHT22;25592;49.986;11.618;2022-11-15T18:57:15;12.00;98.40
39925;DHT22;25592;49.986;11.618;2022-11-15T19:00:02;12.00;98.50
39925;DHT22;25592;49.986;11.618;2022-11-15T19:02:47;11.90;98.30
39925;DHT22;25592;49.986;11.618;2022-11-15T19:05:33;11.90;98.40
39925;DHT22;25592;49.986;11.618;2022-11-15T19:08:19;11.90;98.50
39925;DHT22;25592;49.986;11.618;2022-11-15T19:11:16;11.90;98.60
39925;DHT22;25592;49.986;11.618;2022-11-15T19:14:15;11.90;98.60
39925;DHT22;25592;49.986;11.618;2022-11-15T19:17:00;11.90;98.70
39925;DHT22;25592;49.986;11.618;2022-11-15T19:19:46;11.90;98.70